Tiempo atmosférico en la estación meteorológica de Guadalupe , Cáceres (640 m.)



Fecha
DESCASC
Temp. máxima en grados centígrados (hora)
DESCASC
Temp. mínima en grados centígrados (hora)
DESCASC
Temp. media en grados centígrados
DESCASC
Racha de viento máxima en m/sg (hora)
DESCASC
Velocidad máxima media en intervalos de 10 minutos(hora)
DESCASC
Precipitaciones diarias en mm
DESCASC
Precipitaciones de 00:00 a 06:00 en mm
DESCASC
Precipitaciones de 06:00 a 12:00 en mm
DESCASC
Precipitaciones de 12:00 a 18:00 en mm
DESCASC
Precipitaciones de 18:00 a 24:00 en mm
DESCASC
05-12-2019 14 (13:10) 8.2 (05:20) 11.1 8.06 (16:40) 4.17 (17:20) 0 0 0 0 0
04-12-2019 12.6 (11:30) 6.3 (04:40) 9.5 6.94 (22:50) 3.06 (19:40) 3.4 2.2 0 1 0.2
03-12-2019 13.3 (13:30) 6.9 (00:00) 10.1 8.89 (00:40) 4.44 (00:20) 0 0 0 0 0
02-12-2019 11 (11:30) 6.7 (00:00) 8.8 12.78 (09:10) 6.11 (09:40) 0.2 0.2 0 0 0
01-12-2019 9.5 (14:20) 5.9 (00:00) 7.7 5.56 (11:20) 2.22 (20:10) 15.4 0 11.6 3.8 0
30-11-2019 13.7 (10:40) 7.5 (00:00) 10.6 6.67 (18:50) 2.22 (11:30) 2.6 0 0 0.4 2.2
29-11-2019 16.4 (15:40) 10.8 (00:00) 13.6 4.72 (14:10) 2.5 (14:10) 0.4 0.2 0.2 0 0
28-11-2019 13.5 (13:50) 7.5 (00:00) 10.5 4.44 (13:40) 2.22 (13:40) 0.2 0 0 0 0.2
27-11-2019 14.3 (15:30) 9.3 (00:00) 11.8 13.89 (00:10) 2.78 (00:10) 1.2 1.2 0 0 0
26-11-2019 13.8 (14:00) 8.9 (00:00) 11.3 11.39 (19:10) 3.33 (15:40) 8.4 0 0.4 4.8 3.2
25-11-2019 16.1 (14:00) 9.1 (00:00) 12.6 7.22 (14:20) 2.5 (15:40) 14.6 11.2 3.4 0 0
24-11-2019 13.7 (14:30) 3.6 (00:00) 8.6 8.89 (00:20) 4.44 (00:10) 0.6 0 0 0 0.6
23-11-2019 12.5 (14:50) 6.7 (00:00) 9.6 14.17 (07:20) 5.83 (23:40) 3.2 3.2 0 0 0
22-11-2019 14 (15:40) 8.3 (00:00) 11.2 12.78 (21:10) 3.33 (16:40) 36.2 1.8 19.6 8.4 6.4
21-11-2019 10.7 (16:40) 5.7 (00:00) 8.2 2.78 (03:50) 1.11 (15:30) 5.8 1.2 3.8 0.8 0
20-11-2019 6.2 (13:00) 3.6 (00:00) 4.9 3.33 (12:50) 1.39 (11:10) 9.6 0 3 4.8 1.8
19-11-2019 10.7 (13:30) 3 (00:00) 6.8 3.61 (14:10) 2.22 (14:10) 0 0 0 0 0
18-11-2019 13.9 (14:30) 3.3 (00:00) 8.6 8.89 (03:00) 5 (03:00) 0 0 0 0 0
17-11-2019 9.3 (21:40) 2.3 (00:00) 5.8 10.83 (22:50) 3.89 (22:40) 16 0 0.8 4.6 10.6
16-11-2019 12.5 (14:00) 0.7 (00:00) 6.6 8.61 (02:30) 5.28 (02:30) 0 0 0 0 0
15-11-2019 10.1 (13:00) 3.4 (00:00) 6.8 10.83 (06:10) 4.72 (06:00) 0 0 0 0 0
14-11-2019 10.5 (14:20) 5.4 (00:00) 8 13.06 (21:30) 4.72 (21:30) 7 0 6.8 0 0.2
13-11-2019 18.6 (14:20) 9.3 (00:00) 14 14.17 (03:30) 3.06 (12:30) 8.2 3.6 4.6 0 0
12-11-2019 13.4 (14:50) 4.4 (00:00) 8.9 7.22 (23:50) 2.22 (23:00) 0.2 0 0 0.2 0
11-11-2019 13.5 (17:00) 6.1 (06:10) 9.8 8.33 (16:20) 4.17 (01:30) 0 0 0 0 0
10-11-2019 10.8 (15:20) 6.5 (00:00) 8.7 13.89 (14:20) 5.28 (01:20) 0.2 0.2 0 0 0
09-11-2019 13.6 (13:10) 3.4 (00:00) 8.5 9.44 (23:59) 3.61 (23:59) 4.6 0 0 2.4 2.2
08-11-2019 14 (15:10) 4.7 (00:00) 9.3 13.06 (20:50) 5 (10:30) 0 0 0 0 0
07-11-2019 14.6 (11:50) 6.6 (00:00) 10.6 10.83 (15:40) 4.17 (15:00) 8.2 5.8 2.4 0 0
06-11-2019 15.3 (15:20) 6.4 (00:00) 10.9 11.39 (00:30) 5.28 (02:20) 0 0 0 0 0

Gráficas

Temp. máximas Temp. mínimas Temp. medias Precipitaciones Rachas de viento máximas Velocidades máximas media en intervalos de 10 minutos

Datos horarios

Fecha y hora oficial Temperatura (ºC) Velocidad del viento (km/h) Dirección del viento Racha (km/h) Dirección de racha Precipitación (mm) Presión (hPa) Tendencia (hPa) Humedad (%)
2019-12-05 23:00:00 11.1 6 Nordeste 28 Nordeste 0 -- -- 66
2019-12-05 22:00:00 11.2 10 Nordeste 29 Este 0 -- -- 66
2019-12-05 21:00:00 11 11 Nordeste 28 Nordeste 0 -- -- 66
2019-12-05 20:00:00 10.9 11 Nordeste 25 Este 0 -- -- 65
2019-12-05 19:00:00 10.4 8 Nordeste 27 Norte 0 -- -- 66
2019-12-05 18:00:00 10.6 13 Norte 28 Norte 0 -- -- 67
2019-12-05 17:00:00 11.3 14 Norte 29 Nordeste 0 -- -- 64
2019-12-05 16:00:00 11.4 11 Norte 25 Norte 0 -- -- 64
2019-12-05 15:00:00 12.1 11 Nordeste 26 Nordeste 0 -- -- 58
2019-12-05 14:00:00 13.5 9 Nordeste 23 Nordeste 0 -- -- 58
2019-12-05 13:00:00 13.8 10 Nordeste 24 Nordeste 0 -- -- 55
2019-12-05 12:00:00 11.6 12 Noroeste 27 Nordeste 0 -- -- 62
2019-12-05 11:00:00 11.6 12 Norte 28 Norte 0 -- -- 63
2019-12-05 10:00:00 11.7 10 Norte 24 Norte 0 -- -- 59
2019-12-05 09:00:00 9.3 10 Norte 24 Este 0 -- -- 68
2019-12-05 08:00:00 8.7 9 Nordeste 20 Nordeste 0 -- -- 70
2019-12-05 07:00:00 9 5 Norte 15 Norte 0 -- -- 69
2019-12-05 06:00:00 8.8 5 Norte 9 Nordeste 0 -- -- 70
2019-12-05 05:00:00 8.5 3 Noroeste 9 Norte 0 -- -- 76
2019-12-05 04:00:00 9.9 4 Nordeste 11 Noroeste 0 -- -- 68
2019-12-05 03:00:00 9.2 4 Norte 13 Nordeste 0 -- -- 69
2019-12-05 02:00:00 10.1 8 Nordeste 20 Nordeste 0 -- -- 64
2019-12-05 01:00:00 9.2 6 Norte 21 Nordeste 0 -- -- 70
2019-12-05 00:00:00 9.3 10 Norte 21 Nordeste 0 -- -- 71
2019-12-04 23:00:00 9.5 6 Este 25 Este 0 -- -- 73
2019-12-04 22:00:00 9.5 6 Norte 15 Nordeste 0 -- -- 74
2019-12-04 21:00:00 9.7 2 Nordeste 23 Nordeste 0 -- -- 75
2019-12-04 20:00:00 9.8 9 Nordeste 24 Norte 0 -- -- 74
2019-12-04 19:00:00 8.8 3 Norte 10 Norte 0.2 -- -- 87
2019-12-04 18:00:00 8.5 6 Noroeste 13 Noroeste 0.2 -- -- 86
2019-12-04 17:00:00 9 4 Noroeste 17 Norte 0.2 -- -- 83
2019-12-04 16:00:00 9.5 6 Norte 17 Norte 0 -- -- 81
2019-12-04 15:00:00 10.1 8 Norte 15 Norte 0.6 -- -- 74
2019-12-04 14:00:00 10.9 4 Sudeste 11 Sudeste 0 -- -- 75
2019-12-04 13:00:00 11.6 5 Este 15 Noroeste 0 -- -- 67
2019-12-04 12:00:00 12.6 0 Calma 10 Sur 0 -- -- 66
2019-12-04 11:00:00 11.3 2 Sur 5 Sur 0 -- -- 72
2019-12-04 10:00:00 7 2 Norte 9 Noroeste 0 -- -- 90
2019-12-04 09:00:00 7.3 0 Calma 9 Sudoeste 0 -- -- 90
2019-12-04 08:00:00 6.7 0 Calma 6 Noroeste 0 -- -- 92
2019-12-04 07:00:00 7.1 0 Calma 17 Noroeste 0 -- -- 90
2019-12-04 06:00:00 6.5 0 Calma 4 Norte 0.2 -- -- 95
2019-12-04 05:00:00 6.3 2 Noroeste 8 Oeste 1.6 -- -- 94
2019-12-04 04:00:00 6.6 0 Calma 10 Este 0.4 -- -- 89
2019-12-04 03:00:00 6.5 4 Noroeste 9 Noroeste 0 -- -- 92
2019-12-04 02:00:00 7.2 2 Este 9 Este 0 -- -- 85
2019-12-04 01:00:00 7.8 3 Este 7 Este 0 -- -- 80
2019-12-04 00:00:00 8.1 2 Nordeste 10 Sudeste 0 -- -- 79
2019-12-03 23:00:00 8.5 5 Sudeste 12 Este 0 -- -- 77
2019-12-03 22:00:00 8.6 4 Este 15 Este 0 -- -- 76
2019-12-03 21:00:00 8.8 5 Este 13 Nordeste 0 -- -- 74
2019-12-03 20:00:00 8.9 5 Nordeste 15 Este 0 -- -- 73
2019-12-03 19:00:00 8.9 5 Este 15 Este 0 -- -- 72
2019-12-03 18:00:00 9.3 4 Nordeste 15 Este 0 -- -- 70
2019-12-03 17:00:00 10.3 5 Este 14 Este 0 -- -- 66
2019-12-03 16:00:00 11.3 6 Nordeste 14 Este 0 -- -- 62
2019-12-03 15:00:00 11.7 6 Este 15 Este 0 -- -- 62
2019-12-03 14:00:00 12.6 8 Este 19 Este 0 -- -- 58
2019-12-03 13:00:00 13.2 10 Este 19 Este 0 -- -- 55
2019-12-03 12:00:00 12.9 9 Este 20 Este 0 -- -- 57
2019-12-03 11:00:00 11.8 6 Este 12 Sudeste 0 -- -- 59
2019-12-03 10:00:00 11.1 3 Sur 8 Sudeste 0 -- -- 63
2019-12-03 09:00:00 8.3 0 Calma 16 Este 0 -- -- 70
2019-12-03 08:00:00 8.6 9 Nordeste 21 Norte 0 -- -- 68
2019-12-03 07:00:00 8.4 6 Norte 22 Nordeste 0 -- -- 68
2019-12-03 06:00:00 8.5 6 Nordeste 19 Este 0 -- -- 68
2019-12-03 05:00:00 7.3 7 Nordeste 15 Este 0 -- -- 73
2019-12-03 04:00:00 8.6 8 Nordeste 23 Nordeste 0 -- -- 67
2019-12-03 03:00:00 9.1 11 Nordeste 25 Nordeste 0 -- -- 65
2019-12-03 02:00:00 9 9 Nordeste 27 Este 0 -- -- 64
2019-12-03 01:00:00 10 14 Norte 32 Norte 0 -- -- 62
2019-12-03 00:00:00 9.5 10 Norte 28 Norte 0 -- -- 63
2019-12-02 23:00:00 9.5 12 Nordeste 32 Norte 0 -- -- 64
2019-12-02 22:00:00 9.6 17 Norte 30 Norte 0 -- -- 63
2019-12-02 21:00:00 9.7 6 Nordeste 31 Norte 0 -- -- 62
2019-12-02 20:00:00 9.8 10 Nordeste 33 Nordeste 0 -- -- 62
2019-12-02 19:00:00 9.6 9 Nordeste 35 Nordeste 0 -- -- 64
2019-12-02 18:00:00 9.5 8 Nordeste 27 Nordeste 0 -- -- 66
2019-12-02 17:00:00 9.3 9 Nordeste 26 Norte 0 -- -- 69
2019-12-02 16:00:00 9.7 9 Nordeste 29 Este 0 -- -- 67
2019-12-02 15:00:00 9.9 12 Nordeste 35 Nordeste 0 -- -- 65
2019-12-02 14:00:00 9.7 12 Nordeste 33 Nordeste 0 -- -- 65
2019-12-02 13:00:00 9.3 10 Nordeste 32 Nordeste 0 -- -- 69
2019-12-02 12:00:00 9.6 13 Este 27 Sudeste 0 -- -- 67
2019-12-02 11:00:00 8.3 15 Nordeste 36 Nordeste 0 -- -- 74
2019-12-02 10:00:00 9.7 14 Nordeste 46 Norte 0 -- -- 69
2019-12-02 09:00:00 7.8 19 Norte 39 Norte 0 -- -- 77
2019-12-02 08:00:00 7.6 17 Norte 35 Norte 0 -- -- 77
2019-12-02 07:00:00 7.8 15 Norte 33 Norte 0 -- -- 80
2019-12-02 06:00:00 7.9 13 Nordeste 26 Nordeste 0 -- -- 81
2019-12-02 05:00:00 7.8 13 Norte 24 Norte 0 -- -- 82
2019-12-02 04:00:00 7.6 9 Norte 22 Norte 0 -- -- 85
2019-12-02 03:00:00 7.3 3 Sudeste 14 Norte 0 -- -- 90
2019-12-02 02:00:00 6.7 0 Calma 19 Noroeste 0.2 -- -- 95
2019-12-02 01:00:00 7 9 Noroeste 15 Noroeste 0 -- -- 90
2019-12-02 00:00:00 7.3 5 Norte 12 Norte 0 -- -- 88
2019-12-01 23:00:00 6.2 3 Norte 7 Norte 0 -- -- 95
2019-12-01 22:00:00 6.3 4 Nordeste 10 Oeste 0 -- -- 93
2019-12-01 21:00:00 6.2 5 Oeste 13 Norte 0 -- -- 94
2019-12-01 20:00:00 7 5 Norte 14 Noroeste 0 -- -- 93
2019-12-01 19:00:00 7.8 0 Calma 4 Norte 0 -- -- 95
2019-12-01 18:00:00 8.4 3 Norte 6 Nordeste 0.6 -- -- 91
2019-12-01 17:00:00 9.3 0 Calma 4 Sur 0 -- -- 94
2019-12-01 16:00:00 9.5 0 Calma 5 Este 0 -- -- 93
2019-12-01 15:00:00 9.4 2 Este 8 Este 0 -- -- 94
2019-12-01 14:00:00 8.7 3 Nordeste 8 Sudeste 2.8 -- -- 95
2019-12-01 13:00:00 8.6 5 Este 8 Este 0.4 -- -- 94
2019-12-01 12:00:00 8.2 3 Este 20 Sur 4.8 -- -- 90
2019-12-01 11:00:00 8.4 4 Sudoeste 18 Sur 3.4 -- -- 95
2019-12-01 10:00:00 7.9 2 Sudeste 8 Sudoeste 0.8 -- -- 96
2019-12-01 09:00:00 7.7 3 Sudoeste 10 Sudoeste 1 -- -- 96
2019-12-01 08:00:00 7.7 0 Calma 14 Sur 1.6 -- -- 94
2019-12-01 07:00:00 7.6 0 Calma 10 Norte 0 -- -- 91
2019-12-01 06:00:00 7.5 2 Nordeste 9 Nordeste 0 -- -- 91
2019-12-01 05:00:00 7.6 2 Norte 6 Nordeste 0 -- -- 91
2019-12-01 04:00:00 7.8 0 Calma 8 Sur 0 -- -- 88
2019-12-01 03:00:00 7.9 2 Sudoeste 5 Sudoeste 0 -- -- 86
2019-12-01 02:00:00 8.1 0 Calma 8 Oeste 0 -- -- 86
2019-12-01 01:00:00 7.4 0 Calma 11 Sudoeste 0 -- -- 87
2019-12-01 00:00:00 7.5 2 Sudoeste 14 Noroeste 0 -- -- 88
2019-11-30 23:00:00 8.4 3 Noroeste 15 Sudoeste 0 -- -- 89
2019-11-30 22:00:00 9.7 4 Sur 23 Sudoeste 0.4 -- -- 81
2019-11-30 21:00:00 10.2 7 Norte 20 Oeste 0.8 -- -- 84
2019-11-30 20:00:00 11.4 5 Sur 23 Sur 0.6 -- -- 94
2019-11-30 19:00:00 11.3 5 Sur 24 Sudoeste 0.4 -- -- 93
2019-11-30 18:00:00 11.3 4 Sur 16 Sur 0.4 -- -- 94
2019-11-30 17:00:00 11.6 5 Sur 20 Sur 0 -- -- 90
2019-11-30 16:00:00 11.7 8 Sur 20 Oeste 0 -- -- 88
2019-11-30 15:00:00 11.8 5 Sur 15 Sur 0 -- -- 87
2019-11-30 14:00:00 11.9 3 Sudoeste 18 Sudoeste 0 -- -- 87
2019-11-30 13:00:00 12.1 5 Sur 17 Sur 0 -- -- 82
2019-11-30 12:00:00 12.6 5 Sur 20 Sudoeste 0 -- -- 77
2019-11-30 11:00:00 13.3 6 Sur 17 Sur 0 -- -- 77
2019-11-30 10:00:00 11.7 2 Sudeste 4 Sudeste 0 -- -- 92
2019-11-30 09:00:00 10.3 0 Calma 3 Norte 0 -- -- 98
2019-11-30 08:00:00 10.6 0 Calma 5 Este 0 -- -- 97
2019-11-30 07:00:00 11 0 Calma 3 Nordeste 0 -- -- 97
2019-11-30 06:00:00 11.2 0 Calma 3 Norte 0 -- -- 97
2019-11-30 05:00:00 11.1 0 Calma 3 Sur 0 -- -- 96
2019-11-30 04:00:00 11 0 Calma 5 Nordeste 0 -- -- 96
2019-11-30 03:00:00 11.6 0 Calma 5 Nordeste 0 -- -- 93
2019-11-30 02:00:00 12 2 Este 6 Norte 0 -- -- 92
2019-11-30 01:00:00 12 0 Calma 4 Oeste 0 -- -- 92
2019-11-30 00:00:00 12 0 Calma 2 Norte 0 -- -- 93
2019-11-29 23:00:00 11.8 0 Calma 4 Noroeste 0 -- -- 93
2019-11-29 22:00:00 11.7 0 Calma 4 Noroeste 0 -- -- 93
2019-11-29 21:00:00 12.5 0 Calma 3 Noroeste 0 -- -- 91
2019-11-29 20:00:00 12.7 0 Calma 3 Noroeste 0 -- -- 88
2019-11-29 19:00:00 13.3 0 Calma 9 Sudoeste 0 -- -- 85
2019-11-29 18:00:00 13.7 0 Calma 8 Oeste 0 -- -- 83
2019-11-29 17:00:00 14.4 4 Sur 13 Sudoeste 0 -- -- 79
2019-11-29 16:00:00 16 6 Sur 17 Sur 0 -- -- 71
2019-11-29 15:00:00 15.7 6 Norte 17 Sur 0 -- -- 69
2019-11-29 14:00:00 16 8 Sur 16 Sudeste 0 -- -- 68
2019-11-29 13:00:00 14.5 2 Noroeste 10 Este 0 -- -- 76
2019-11-29 12:00:00 14.1 6 Este 10 Este 0 -- -- 84
2019-11-29 11:00:00 12.6 3 Este 9 Nordeste 0 -- -- 91
2019-11-29 10:00:00 12.1 3 Este 9 Este 0.2 -- -- 93
2019-11-29 09:00:00 10.9 0 Calma 5 Este 0 -- -- 96
2019-11-29 08:00:00 11 0 Calma 5 Oeste 0 -- -- 95
2019-11-29 07:00:00 11.1 2 Oeste 11 Sudoeste 0 -- -- 94
2019-11-29 06:00:00 11.2 3 Oeste 10 Oeste 0 -- -- 94
2019-11-29 05:00:00 11.5 3 Sudoeste 12 Oeste 0.2 -- -- 91
2019-11-29 04:00:00 11.8 2 Sudoeste 14 Sudoeste 0 -- -- 90
2019-11-29 03:00:00 12 3 Sudoeste 15 Sur 0 -- -- 86
2019-11-29 02:00:00 11.8 2 Sudoeste 12 Sudoeste 0 -- -- 89
2019-11-29 01:00:00 12 3 Oeste 14 Norte 0 -- -- 88
2019-11-29 00:00:00 11.9 3 Sudoeste 12 Sur 0 -- -- 87
2019-11-28 23:00:00 11.4 0 Calma 11 Oeste 0 -- -- 91
2019-11-28 22:00:00 11.1 0 Calma 4 Nordeste 0 -- -- 94
2019-11-28 21:00:00 11.1 3 Nordeste 5 Nordeste 0.2 -- -- 93
2019-11-28 20:00:00 11.2 2 Norte 6 Norte 0 -- -- 89
2019-11-28 19:00:00 10.8 3 Norte 8 Nordeste 0 -- -- 92
2019-11-28 18:00:00 11.5 2 Noroeste 7 Nordeste 0 -- -- 90
2019-11-28 17:00:00 11.6 3 Este 8 Este 0 -- -- 88
2019-11-28 16:00:00 11.3 0 Calma 10 Sur 0 -- -- 91
2019-11-28 15:00:00 12.4 6 Sur 15 Sudoeste 0 -- -- 81
2019-11-28 14:00:00 13.4 8 Sur 16 Sur 0 -- -- 74
2019-11-28 13:00:00 12.7 4 Sur 12 Sur 0 -- -- 77
2019-11-28 12:00:00 11.2 5 Este 9 Este 0 -- -- 88
2019-11-28 11:00:00 9.9 5 Este 9 Este 0 -- -- 92
2019-11-28 10:00:00 9.1 0 Calma 6 Oeste 0 -- -- 92
2019-11-28 09:00:00 8.3 0 Calma 6 Nordeste 0 -- -- 94
2019-11-28 08:00:00 8.1 4 Este 8 Nordeste 0 -- -- 95
2019-11-28 07:00:00 8.5 3 Sudeste 9 Este 0 -- -- 91
2019-11-28 06:00:00 8.1 0 Calma 5 Noroeste 0 -- -- 88
2019-11-28 05:00:00 7.7 0 Calma 6 Noroeste 0 -- -- 87
2019-11-28 04:00:00 8.5 2 Norte 6 Norte 0 -- -- 84
2019-11-28 03:00:00 10 2 Sudeste 16 Noroeste 0 -- -- 75
2019-11-28 02:00:00 10.7 5 Oeste 15 Noroeste 0 -- -- 76
2019-11-28 01:00:00 10.9 3 Sudoeste 11 Sudoeste 0 -- -- 76
2019-11-28 00:00:00 11 3 Sur 23 Sur 0 -- -- 77
2019-11-27 23:00:00 11.2 3 Sudoeste 12 Sudoeste 0 -- -- 75
2019-11-27 22:00:00 11.3 5 Sudoeste 15 Sur 0 -- -- 73
2019-11-27 21:00:00 11.3 2 Sudoeste 11 Sudoeste 0 -- -- 71
2019-11-27 20:00:00 11.2 3 Oeste 15 Oeste 0 -- -- 68
2019-11-27 19:00:00 11.2 3 Oeste 12 Sudoeste 0 -- -- 72
2019-11-27 18:00:00 11.8 3 Sur 14 Oeste 0 -- -- 67
2019-11-27 17:00:00 12.5 3 Sudoeste 12 Sur 0 -- -- 67
2019-11-27 16:00:00 13.2 3 Sudoeste 17 Sur 0 -- -- 62
2019-11-27 15:00:00 13.5 5 Sudoeste 21 Sur 0 -- -- 62
2019-11-27 14:00:00 14 5 Sur 14 Oeste 0 -- -- 58
2019-11-27 06:00:00 9.9 5 Sudoeste 21 Sudeste 0 -- -- 75
2019-11-27 05:00:00 10.3 7 Sur 45 Noroeste 0 -- -- 81
2019-11-27 04:00:00 11 6 Noroeste 31 Noroeste 0.2 -- -- 86
2019-11-27 03:00:00 11.5 3 Este 26 Sudoeste 1 -- -- 91
2019-11-27 02:00:00 11.9 6 Sudoeste 39 Noroeste 0 -- -- 89
2019-11-27 01:00:00 12.5 10 Oeste 50 Oeste 0 -- -- 81
2019-11-27 00:00:00 12.4 8 Sudoeste 39 Norte 0 -- -- 78
2019-11-26 23:00:00 12.5 8 Sudoeste 41 Sudoeste 0 -- -- 77
2019-11-26 22:00:00 13 6 Sudoeste 40 Oeste 0 -- -- 79
2019-11-26 21:00:00 13.5 10 Sudoeste 30 Sur 0.2 -- -- 80
2019-11-26 20:00:00 13 6 Sudoeste 41 Sudoeste 1.8 -- -- 93
2019-11-26 19:00:00 12.8 8 Sudoeste 37 Sur 1.2 -- -- 92
2019-11-26 18:00:00 12.7 9 Sur 27 Sudoeste 1.8 -- -- 92
2019-11-26 17:00:00 12.7 9 Sudoeste 32 Oeste 2.4 -- -- 90
2019-11-26 16:00:00 13.3 6 Sur 28 Sudoeste 0.4 -- -- 89
2019-11-26 15:00:00 13.6 5 Sur 19 Sur 0 -- -- 89
2019-11-26 14:00:00 13.8 6 Sur 22 Sudoeste 0 -- -- 88
2019-11-26 13:00:00 12.8 2 Sudeste 8 Sudeste 0.2 -- -- 95
2019-11-26 12:00:00 12.5 4 Este 9 Sudeste 0 -- -- 95
2019-11-26 11:00:00 12.2 5 Este 9 Sudeste 0 -- -- 93
2019-11-26 10:00:00 11.1 0 Calma 6 Este 0 -- -- 96
2019-11-26 09:00:00 10.4 2 Sudeste 13 Este 0.2 -- -- 97
2019-11-26 08:00:00 10.4 3 Este 8 Este 0.2 -- -- 97
2019-11-26 07:00:00 10.3 4 Este 10 Nordeste 0 -- -- 96
2019-11-26 06:00:00 10.2 0 Calma 4 Nordeste 0 -- -- 95
2019-11-26 05:00:00 9.9 0 Calma 5 Sudeste 0 -- -- 91
2019-11-26 04:00:00 9.3 0 Calma 6 Norte 0 -- -- 92
2019-11-26 03:00:00 9.5 2 Norte 13 Noroeste 0 -- -- 86
2019-11-26 02:00:00 9 3 Oeste 6 Noroeste 0 -- -- 88
2019-11-26 01:00:00 9.6 3 Norte 9 Noroeste 0 -- -- 85
2019-11-26 00:00:00 9.7 5 Noroeste 8 Noroeste 0 -- -- 85
2019-11-25 23:00:00 11.1 3 Noroeste 19 Noroeste 0 -- -- 80
2019-11-25 22:00:00 11.3 3 Noroeste 10 Noroeste 0 -- -- 79
2019-11-25 21:00:00 12.9 3 Norte 23 Norte 0 -- -- 73
2019-11-25 20:00:00 13.3 5 Noroeste 23 Noroeste 0 -- -- 70
2019-11-25 19:00:00 13.2 6 Norte 17 Noroeste 0 -- -- 73
2019-11-25 18:00:00 13.3 3 Norte 12 Norte 0 -- -- 74
2019-11-25 17:00:00 14.2 5 Norte 20 Sudoeste 0 -- -- 73
2019-11-25 16:00:00 14.8 3 Oeste 21 Noroeste 0 -- -- 70
2019-11-25 15:00:00 14.9 5 Noroeste 26 Oeste 0 -- -- 70
2019-11-25 14:00:00 16.1 5 Noroeste 17 Sudoeste 0 -- -- 68
2019-11-25 13:00:00 14.5 3 Sudoeste 13 Sur 0 -- -- 78
2019-11-25 12:00:00 12.7 4 Sur 8 Este 0.2 -- -- 95
2019-11-25 11:00:00 10.7 0 Calma 3 Sudoeste 0.6 -- -- 97
2019-11-25 10:00:00 10 0 Calma 8 Este 0.4 -- -- 98
2019-11-25 09:00:00 9.8 4 Sudeste 10 Este 0.4 -- -- 97
2019-11-25 08:00:00 9.9 3 Este 7 Este 1.2 -- -- 97
2019-11-25 07:00:00 10 4 Nordeste 12 Nordeste 0.6 -- -- 98
2019-11-25 06:00:00 9.6 6 Nordeste 13 Nordeste 1.4 -- -- 98
2019-11-25 05:00:00 9.5 3 Nordeste 6 Nordeste 3.8 -- -- 97
2019-11-25 04:00:00 9.5 4 Este 10 Sur 0.4 -- -- 97
2019-11-25 03:00:00 9.2 2 Nordeste 9 Este 1 -- -- 97
2019-11-25 02:00:00 9.2 3 Este 14 Sudeste 2.4 -- -- 96
2019-11-25 01:00:00 9.1 3 Nordeste 12 Sur 2.2 -- -- 96
2019-11-25 00:00:00 9.2 5 Sur 15 Sudoeste 0.6 -- -- 95
2019-11-24 23:00:00 9.4 4 Sur 18 Sur 0 -- -- 92
2019-11-24 22:00:00 9.6 4 Sur 10 Sur 0 -- -- 88
2019-11-24 21:00:00 9.4 3 Sudeste 10 Sudeste 0 -- -- 88
2019-11-24 20:00:00 9 2 Sur 7 Sur 0 -- -- 87
2019-11-24 19:00:00 8.8 0 Calma 5 Sudoeste 0 -- -- 89
2019-11-24 18:00:00 9.4 3 Sudoeste 16 Sur 0 -- -- 83
2019-11-24 17:00:00 10.5 3 Sudoeste 18 Oeste 0 -- -- 70
2019-11-24 16:00:00 11.3 4 Sur 20 Sudoeste 0 -- -- 64
2019-11-24 15:00:00 13.4 7 Sur 24 Sudoeste 0 -- -- 53
2019-11-24 14:00:00 12.4 4 Nordeste 15 Noroeste 0 -- -- 54
2019-11-24 13:00:00 13 4 Sudoeste 21 Sur 0 -- -- 54
2019-11-24 12:00:00 11.2 4 Sudeste 10 Este 0 -- -- 66
2019-11-24 11:00:00 9.6 3 Sudeste 9 Este 0 -- -- 68
2019-11-24 10:00:00 7.2 3 Sur 8 Sur 0 -- -- 74
2019-11-24 09:00:00 6.9 6 Noroeste 17 Norte 0 -- -- 63
2019-11-24 08:00:00 6.1 9 Norte 21 Norte 0 -- -- 72
2019-11-24 07:00:00 7 10 Norte 28 Norte 0 -- -- 64
2019-11-24 06:00:00 3.6 2 Sudoeste 9 Oeste 0 -- -- 88
2019-11-24 05:00:00 5.9 5 Oeste 15 Oeste 0 -- -- 76
2019-11-24 04:00:00 6.7 7 Noroeste 20 Noroeste 0 -- -- 72
2019-11-24 03:00:00 6.4 6 Norte 21 Norte 0 -- -- 76
2019-11-24 02:00:00 6.8 3 Sudoeste 29 Noroeste 0 -- -- 74
2019-11-24 01:00:00 7.8 12 Norte 32 Noroeste 0 -- -- 70
2019-11-24 00:00:00 8.2 18 Norte 42 Norte 0 -- -- 66
2019-11-23 23:00:00 8.1 15 Norte 44 Noroeste 0 -- -- 69
2019-11-23 22:00:00 8.2 6 Norte 34 Oeste 0 -- -- 69
2019-11-23 21:00:00 8.5 8 Norte 22 Noroeste 0 -- -- 64
2019-11-23 20:00:00 8.8 7 Noroeste 28 Noroeste 0 -- -- 62
2019-11-23 19:00:00 9 8 Noroeste 22 Oeste 0 -- -- 61
2019-11-23 18:00:00 9.2 3 Sur 27 Noroeste 0 -- -- 61
2019-11-23 17:00:00 10.2 9 Noroeste 34 Noroeste 0 -- -- 59
2019-11-23 16:00:00 10.9 13 Noroeste 38 Noroeste 0 -- -- 56
2019-11-23 15:00:00 12.4 7 Norte 34 Noroeste 0 -- -- 53
2019-11-23 14:00:00 11.7 12 Norte 40 Noroeste 0 -- -- 55
2019-11-23 13:00:00 11.7 7 Norte 45 Noroeste 0 -- -- 57
2019-11-23 12:00:00 10.2 18 Noroeste 41 Noroeste 0 -- -- 59
2019-11-23 11:00:00 9.5 15 Noroeste 45 Noroeste 0 -- -- 62
2019-11-23 10:00:00 8.1 14 Noroeste 39 Noroeste 0 -- -- 67
2019-11-23 09:00:00 6.7 11 Noroeste 44 Sudoeste 0 -- -- 72
2019-11-23 08:00:00 6.9 10 Norte 51 Noroeste 0 -- -- 71
2019-11-23 07:00:00 7 7 Noroeste 39 Noroeste 0 -- -- 73
2019-11-23 06:00:00 7.2 11 Noroeste 41 Noroeste 0 -- -- 74
2019-11-23 05:00:00 7.5 17 Noroeste 50 Noroeste 0 -- -- 71
2019-11-23 04:00:00 8 11 Noroeste 38 Norte 0 -- -- 73
2019-11-23 03:00:00 8.3 9 Norte 42 Noroeste 0.2 -- -- 76
2019-11-23 02:00:00 8.3 6 Noroeste 40 Noroeste 0.2 -- -- 82
2019-11-23 01:00:00 8.6 12 Noroeste 41 Noroeste 2.8 -- -- 82
2019-11-23 00:00:00 8.8 5 Sudoeste 40 Sur 5.2 -- -- 87
2019-11-22 23:00:00 9.2 6 Sudoeste 27 Sudoeste 1 -- -- 86
2019-11-22 22:00:00 10.1 9 Sur 46 Sudoeste 0.2 -- -- 73
2019-11-22 21:00:00 10.6 9 Oeste 36 Oeste 0 -- -- 70
2019-11-22 20:00:00 11.2 8 Sudoeste 35 Oeste 0 -- -- 78
2019-11-22 19:00:00 11.5 6 Sur 28 Sudoeste 0 -- -- 71
2019-11-22 18:00:00 12 7 Sudoeste 34 Sudoeste 0 -- -- 69
2019-11-22 17:00:00 12.7 7 Oeste 42 Oeste 0 -- -- 70
2019-11-22 16:00:00 13.7 6 Sur 30 Sudoeste 0 -- -- 78
2019-11-22 15:00:00 13 8 Sudoeste 27 Sudoeste 2 -- -- 91
2019-11-22 14:00:00 11.6 6 Sudoeste 21 Sur 2.6 -- -- 94
2019-11-22 13:00:00 11 3 Oeste 12 Sudeste 3.8 -- -- 95
2019-11-22 12:00:00 9.8 5 Sudeste 18 Sudeste 6.6 -- -- 97
2019-11-22 11:00:00 9.5 4 Sur 25 Sur 5.8 -- -- 97
2019-11-22 10:00:00 9.1 3 Sudeste 13 Sur 2.8 -- -- 97
2019-11-22 09:00:00 8.9 5 Sur 20 Sur 1.4 -- -- 96
2019-11-22 08:00:00 8.9 6 Sur 23 Sur 2 -- -- 95
2019-11-22 07:00:00 9 5 Sur 18 Sur 1 -- -- 96
2019-11-22 06:00:00 8.9 5 Sur 13 Sur 0 -- -- 96
2019-11-22 05:00:00 9 4 Sur 15 Sur 0.6 -- -- 94
2019-11-22 04:00:00 8.9 5 Sur 14 Sudoeste 0 -- -- 94
2019-11-22 03:00:00 8.6 2 Sur 8 Sudoeste 0.4 -- -- 98
2019-11-22 02:00:00 8.3 4 Nordeste 8 Este 0.8 -- -- 98
2019-11-22 01:00:00 8.5 0 Calma 4 Nordeste 0 -- -- 97
2019-11-22 00:00:00 8.4 2 Nordeste 7 Sudeste 0 -- -- 97
2019-11-21 23:00:00 8.4 0 Calma 3 Nordeste 0 -- -- 97
2019-11-21 22:00:00 8.2 2 Oeste 6 Oeste 0 -- -- 96
2019-11-21 21:00:00 8.4 2 Norte 3 Norte 0 -- -- 96
2019-11-21 20:00:00 8 2 Nordeste 4 Norte 0 -- -- 96
2019-11-21 19:00:00 8.2 2 Oeste 7 Sudoeste 0 -- -- 93
2019-11-21 18:00:00 8.9 2 Noroeste 4 Sur 0 -- -- 92
2019-11-21 17:00:00 10.4 3 Sur 7 Sur 0 -- -- 84
2019-11-21 16:00:00 10.5 2 Sur 10 Sudoeste 0 -- -- 85
2019-11-21 15:00:00 10.3 3 Sur 9 Sur 0.4 -- -- 88
2019-11-21 14:00:00 9.5 3 Sudeste 8 Oeste 0.2 -- -- 90
2019-11-21 13:00:00 10.1 3 Sur 6 Sur 0.2 -- -- 86
2019-11-21 12:00:00 9.3 3 Este 6 Este 0.2 -- -- 89
2019-11-21 11:00:00 8.5 0 Calma 6 Oeste 1 -- -- 92
2019-11-21 10:00:00 7.9 0 Calma 6 Noroeste 1 -- -- 97
2019-11-21 09:00:00 7.5 2 Nordeste 6 Sudeste 0.8 -- -- 98
2019-11-21 08:00:00 7.2 2 Nordeste 4 Este 0.8 -- -- 97
2019-11-21 07:00:00 7 2 Nordeste 4 Norte 0 -- -- 97
2019-11-21 06:00:00 7 0 Calma 4 Noroeste 0 -- -- 97
2019-11-21 05:00:00 7 0 Calma 8 Oeste 0 -- -- 96
2019-11-21 04:00:00 7 0 Calma 10 Oeste 0.6 -- -- 97
2019-11-21 03:00:00 6.8 0 Calma 3 Norte 0.6 -- -- 98
2019-11-21 02:00:00 6.4 0 Calma 3 Oeste 0 -- -- 98
2019-11-21 01:00:00 5.8 0 Calma 3 Sur 0 -- -- 98
2019-11-21 00:00:00 5.8 0 Calma 5 Oeste 0.8 -- -- 98
2019-11-20 23:00:00 5.6 0 Calma 2 Noroeste 0 -- -- 98
2019-11-20 22:00:00 5.5 2 Norte 4 Noroeste 0 -- -- 98
2019-11-20 21:00:00 5.6 0 Calma 3 Oeste 0 -- -- 98
2019-11-20 20:00:00 5.6 0 Calma 3 Sur 0.6 -- -- 97
2019-11-20 19:00:00 5.6 0 Calma 4 Nordeste 0.4 -- -- 97
2019-11-20 18:00:00 5.6 2 Este 6 Este 2.2 -- -- 97
2019-11-20 17:00:00 5.8 4 Este 10 Sudeste 0.4 -- -- 96
2019-11-20 16:00:00 5.9 3 Sudeste 6 Sudeste 0.6 -- -- 96
2019-11-20 15:00:00 6.2 3 Sudeste 6 Sudeste 0.4 -- -- 94
2019-11-20 14:00:00 6.1 2 Sudeste 11 Sur 0.2 -- -- 93
2019-11-20 13:00:00 6.2 5 Sur 12 Sur 1 -- -- 93
2019-11-20 12:00:00 5.4 3 Este 9 Este 1 -- -- 95
2019-11-20 11:00:00 5.5 4 Este 8 Sudeste 1.4 -- -- 93
2019-11-20 10:00:00 5.4 0 Calma 3 Sur 0.6 -- -- 92
2019-11-20 09:00:00 5.2 0 Calma 2 Sudoeste 0 -- -- 92
2019-11-20 08:00:00 4.6 0 Calma 0 Calma 0 -- -- 92
2019-11-20 07:00:00 4.1 0 Calma 2 Oeste 0 -- -- 93
2019-11-20 06:00:00 3.7 0 Calma 2 Noroeste 0 -- -- 93
2019-11-20 05:00:00 4.2 0 Calma 4 Noroeste 0 -- -- 90
2019-11-20 04:00:00 4.8 0 Calma 3 Oeste 0 -- -- 89
2019-11-20 03:00:00 4.3 0 Calma 2 Noroeste 0 -- -- 91
2019-11-20 02:00:00 4.2 0 Calma 2 Noroeste 0 -- -- 91
2019-11-20 01:00:00 5 0 Calma 3 Noroeste 0 -- -- 89
2019-11-20 00:00:00 5.1 2 Oeste 3 Oeste 0 -- -- 91
2019-11-19 23:00:00 5.3 0 Calma 2 Sudoeste 0 -- -- 89
2019-11-19 22:00:00 5.7 0 Calma 2 Sudoeste 0 -- -- 89
2019-11-19 21:00:00 5.9 0 Calma 2 Noroeste 0 -- -- 89
2019-11-19 20:00:00 5.8 0 Calma 3 Norte 0 -- -- 89
2019-11-19 19:00:00 6 0 Calma 3 Norte 0 -- -- 86
2019-11-19 18:00:00 7.4 0 Calma 3 Oeste 0 -- -- 79
2019-11-19 17:00:00 9.3 0 Calma 5 Sudoeste 0 -- -- 67
2019-11-19 16:00:00 9.6 0 Calma 9 Este 0 -- -- 63
2019-11-19 15:00:00 10 4 Este 13 Este 0 -- -- 64
2019-11-19 14:00:00 10.4 3 Nordeste 12 Sur 0 -- -- 62
2019-11-19 13:00:00 10.5 4 Sudeste 12 Este 0 -- -- 59
2019-11-19 12:00:00 9.9 3 Sudeste 8 Sudeste 0 -- -- 66
2019-11-19 11:00:00 7.3 2 Sudeste 4 Sudeste 0 -- -- 79
2019-11-19 10:00:00 5.3 0 Calma 2 Norte 0 -- -- 85
2019-11-19 09:00:00 3.7 0 Calma 3 Nordeste 0 -- -- 92
2019-11-19 08:00:00 3.1 0 Calma 3 Norte 0 -- -- 92
2019-11-19 07:00:00 3.4 0 Calma 3 Sur 0 -- -- 91
2019-11-19 06:00:00 3.1 0 Calma 3 Oeste 0 -- -- 91
2019-11-19 05:00:00 3.2 0 Calma 8 Noroeste 0 -- -- 89
2019-11-19 04:00:00 3.3 2 Norte 4 Nordeste 0 -- -- 88
2019-11-19 03:00:00 3.3 0 Calma 3 Nordeste 0 -- -- 90
2019-11-19 02:00:00 3.4 0 Calma 4 Nordeste 0 -- -- 86
2019-11-19 01:00:00 3.5 0 Calma 3 Noroeste 0 -- -- 85
2019-11-19 00:00:00 3.7 0 Calma 6 Noroeste 0 -- -- 83
2019-11-18 23:00:00 3.9 0 Calma 5 Norte 0 -- -- 80
2019-11-18 22:00:00 4.4 2 Noroeste 8 Noroeste 0 -- -- 80
2019-11-18 21:00:00 4.7 2 Noroeste 5 Oeste 0 -- -- 82
2019-11-18 20:00:00 6.4 0 Calma 9 Noroeste 0 -- -- 75
2019-11-18 19:00:00 7.6 8 Norte 12 Norte 0 -- -- 66
2019-11-18 18:00:00 8.6 4 Norte 10 Noroeste 0 -- -- 63
2019-11-18 17:00:00 10.9 4 Oeste 15 Oeste 0 -- -- 52
2019-11-18 16:00:00 12.3 8 Noroeste 17 Norte 0 -- -- 47
2019-11-18 15:00:00 13.8 5 Noroeste 19 Norte 0 -- -- 40
2019-11-18 14:00:00 13.7 4 Sur 18 Sur 0 -- -- 55
2019-11-18 13:00:00 12.9 7 Sudeste 17 Sudeste 0 -- -- 53
2019-11-18 12:00:00 12.3 6 Norte 15 Norte 0 -- -- 43
2019-11-18 11:00:00 10.9 9 Norte 24 Noroeste 0 -- -- 54
2019-11-18 10:00:00 9.9 3 Oeste 12 Sur 0 -- -- 56
2019-11-18 09:00:00 7.1 5 Sur 21 Noroeste 0 -- -- 64
2019-11-18 08:00:00 3.9 2 Oeste 18 Norte 0 -- -- 79
2019-11-18 07:00:00 5.4 7 Norte 18 Norte 0 -- -- 73
2019-11-18 06:00:00 5.1 12 Noroeste 22 Norte 0 -- -- 76
2019-11-18 05:00:00 5 9 Norte 20 Norte 0 -- -- 78
2019-11-18 04:00:00 5.4 13 Norte 31 Norte 0 -- -- 78
2019-11-18 03:00:00 5.3 18 Norte 32 Norte 0 -- -- 83
2019-11-18 02:00:00 5.8 7 Norte 22 Noroeste 0 -- -- 81
2019-11-18 01:00:00 7 7 Norte 31 Nordeste 0 -- -- 77
2019-11-18 00:00:00 7.8 8 Norte 32 Noroeste 0 -- -- 76
2019-11-17 23:00:00 9.1 13 Noroeste 39 Noroeste 0 -- -- 79
2019-11-17 22:00:00 9.3 10 Norte 34 Oeste 1.8 -- -- 84
2019-11-17 21:00:00 7.6 5 Sur 21 Sudoeste 2.2 -- -- 99
2019-11-17 20:00:00 6.8 2 Norte 8 Este 3.6 -- -- 98
2019-11-17 19:00:00 6.7 0 Calma 8 Norte 3 -- -- 97
2019-11-17 18:00:00 6.7 0 Calma 5 Este 3.2 -- -- 97
2019-11-17 17:00:00 6.6 3 Este 10 Este 0.4 -- -- 97
2019-11-17 16:00:00 6.4 4 Este 12 Este 0.4 -- -- 96
2019-11-17 15:00:00 6.3 8 Este 14 Este 0.2 -- -- 95
2019-11-17 14:00:00 6.1 5 Este 10 Este 0.2 -- -- 96
2019-11-17 13:00:00 5.6 4 Nordeste 10 Nordeste 0.2 -- -- 95
2019-11-17 12:00:00 4.5 5 Este 9 Este 0.6 -- -- 95
2019-11-17 11:00:00 3.4 4 Este 9 Sudeste 0.2 -- -- 95
2019-11-17 10:00:00 3 0 Calma 3 Sur 0 -- -- 90
2019-11-17 09:00:00 2.8 2 Sur 4 Sudeste 0 -- -- 88
2019-11-17 08:00:00 2.6 2 Sur 4 Sur 0 -- -- 87
2019-11-17 07:00:00 2.6 3 Sudoeste 5 Sur 0 -- -- 85
2019-11-17 06:00:00 3.1 0 Calma 8 Noroeste 0 -- -- 81
2019-11-17 05:00:00 3 0 Calma 8 Oeste 0 -- -- 81
2019-11-17 04:00:00 2.8 0 Calma 9 Oeste 0 -- -- 79
2019-11-17 03:00:00 3.7 5 Noroeste 12 Noroeste 0 -- -- 73
2019-11-17 02:00:00 2.9 0 Calma 9 Noroeste 0 -- -- 80
2019-11-17 01:00:00 2.7 0 Calma 5 Norte 0 -- -- 81
2019-11-17 00:00:00 3.6 0 Calma 4 Noroeste 0 -- -- 80
2019-11-16 23:00:00 4.5 2 Sur 17 Oeste 0 -- -- 74
2019-11-16 22:00:00 4.8 0 Calma 8 Noroeste 0 -- -- 72
2019-11-16 21:00:00 6.1 2 Este 19 Norte 0 -- -- 65
2019-11-16 20:00:00 6.7 6 Norte 19 Noroeste 0 -- -- 56
2019-11-16 19:00:00 6.1 3 Oeste 14 Noroeste 0 -- -- 56
2019-11-16 18:00:00 6.7 3 Noroeste 12 Sudeste 0 -- -- 58
2019-11-16 17:00:00 8.9 4 Sudoeste 14 Sudoeste 0 -- -- 47
2019-11-16 16:00:00 10.4 6 Noroeste 17 Norte 0 -- -- 42
2019-11-16 15:00:00 12.4 6 Sudoeste 23 Sudoeste 0 -- -- 42
2019-11-16 14:00:00 12.5 9 Sur 23 Sur 0 -- -- 41
2019-11-16 13:00:00 11.8 7 Sudeste 18 Sudeste 0 -- -- 47
2019-11-16 12:00:00 10.5 6 Este 11 Sudeste 0 -- -- 48
2019-11-16 11:00:00 9.2 4 Sudeste 9 Sudeste 0 -- -- 49
2019-11-16 10:00:00 7.4 2 Sudeste 6 Sudoeste 0 -- -- 57
2019-11-16 09:00:00 3.6 2 Sudoeste 5 Sudoeste 0 -- -- 72
2019-11-16 08:00:00 0.7 3 Norte 8 Oeste 0 -- -- 80
2019-11-16 07:00:00 1.6 0 Calma 11 Norte 0 -- -- 75
2019-11-16 06:00:00 2.6 3 Norte 14 Oeste 0 -- -- 70
2019-11-16 05:00:00 1.6 2 Noroeste 16 Noroeste 0 -- -- 77
2019-11-16 04:00:00 2.7 0 Calma 13 Nordeste 0 -- -- 72
2019-11-16 03:00:00 3.5 2 Norte 31 Noroeste 0 -- -- 66
2019-11-16 02:00:00 3.9 16 Norte 27 Norte 0 -- -- 66
2019-11-16 01:00:00 4.2 13 Norte 23 Norte 0 -- -- 63
2019-11-16 00:00:00 3.9 10 Norte 21 Norte 0 -- -- 65
2019-11-15 23:00:00 3.4 10 Norte 22 Norte 0 -- -- 68
2019-11-15 22:00:00 4 12 Norte 23 Noroeste 0 -- -- 64
2019-11-15 21:00:00 5.1 15 Noroeste 33 Noroeste 0 -- -- 59
2019-11-15 20:00:00 5.6 15 Noroeste 29 Noroeste 0 -- -- 55
2019-11-15 19:00:00 5.9 10 Noroeste 30 Norte 0 -- -- 53
2019-11-15 18:00:00 6.8 13 Noroeste 28 Norte 0 -- -- 56
2019-11-15 17:00:00 7.6 12 Noroeste 26 Norte 0 -- -- 57
2019-11-15 16:00:00 8.8 9 Noroeste 29 Noroeste 0 -- -- 54
2019-11-15 15:00:00 9 9 Noroeste 22 Noroeste 0 -- -- 54
2019-11-15 14:00:00 8.9 5 Norte 15 Oeste 0 -- -- 54
2019-11-15 13:00:00 10.1 4 Noroeste 19 Norte 0 -- -- 46
2019-11-15 12:00:00 9.1 6 Nordeste 19 Noroeste 0 -- -- 50
2019-11-15 11:00:00 7.6 8 Norte 17 Norte 0 -- -- 59
2019-11-15 10:00:00 5.4 9 Noroeste 20 Noroeste 0 -- -- 66
2019-11-15 09:00:00 4 4 Sur 31 Noroeste 0 -- -- 69
2019-11-15 08:00:00 3.4 13 Noroeste 33 Noroeste 0 -- -- 69
2019-11-15 07:00:00 3.5 15 Noroeste 39 Noroeste 0 -- -- 68
2019-11-15 06:00:00 3.7 17 Noroeste 36 Noroeste 0 -- -- 67
2019-11-15 05:00:00 3.9 14 Noroeste 33 Noroeste 0 -- -- 67
2019-11-15 04:00:00 3.9 6 Norte 28 Noroeste 0 -- -- 70
2019-11-15 03:00:00 4.5 7 Norte 33 Noroeste 0 -- -- 68
2019-11-15 02:00:00 4.7 6 Norte 26 Noroeste 0 -- -- 67
2019-11-15 01:00:00 5 6 Norte 27 Norte 0 -- -- 70
2019-11-15 00:00:00 5.4 6 Norte 30 Norte 0 -- -- 70
2019-11-14 23:00:00 6 9 Norte 37 Oeste 0 -- -- 68
2019-11-14 22:00:00 6.8 14 Noroeste 47 Noroeste 0 -- -- 67
2019-11-14 21:00:00 7.2 10 Noroeste 32 Noroeste 0 -- -- 67
2019-11-14 20:00:00 7.5 14 Noroeste 40 Sudoeste 0 -- -- 69
2019-11-14 19:00:00 7.2 8 Norte 40 Noroeste 0.2 -- -- 76
2019-11-14 18:00:00 7.6 9 Noroeste 38 Noroeste 0 -- -- 69
2019-11-14 17:00:00 7.7 9 Nordeste 40 Norte 0 -- -- 68
2019-11-14 16:00:00 8.3 9 Noroeste 35 Noroeste 0 -- -- 60
2019-11-14 15:00:00 10 8 Noroeste 34 Oeste 0 -- -- 56
2019-11-14 14:00:00 9.7 7 Sudeste 37 Oeste 0 -- -- 55
2019-11-14 13:00:00 9.5 7 Noroeste 31 Oeste 0 -- -- 60
2019-11-14 12:00:00 9 9 Noroeste 35 Noroeste 0 -- -- 67
2019-11-14 11:00:00 6.7 9 Noroeste 36 Noroeste 0.6 -- -- 77
2019-11-14 10:00:00 6.8 15 Noroeste 37 Noroeste 3.4 -- -- 82
2019-11-14 09:00:00 8.1 9 Noroeste 28 Noroeste 1 -- -- 83
2019-11-14 08:00:00 8.7 10 Noroeste 33 Noroeste 1 -- -- 82
2019-11-14 07:00:00 8.7 7 Sur 45 Noroeste 0.8 -- -- 83
2019-11-14 06:00:00 9.5 8 Sur 29 Oeste 0 -- -- 74
2019-11-14 05:00:00 9.1 10 Sudeste 31 Sur 0 -- -- 71
2019-11-14 04:00:00 8.9 7 Noroeste 26 Sudoeste 0 -- -- 74
2019-11-14 03:00:00 8.6 10 Norte 27 Sudoeste 0 -- -- 73
2019-11-14 02:00:00 8.4 4 Sur 18 Este 0 -- -- 80
2019-11-14 01:00:00 8.6 4 Sur 15 Noroeste 0 -- -- 83
2019-11-14 00:00:00 9.4 4 Norte 11 Nordeste 0 -- -- 82
2019-11-13 23:00:00 9.9 0 Calma 8 Nordeste 0 -- -- 81
2019-11-13 22:00:00 11.7 2 Oeste 20 Noroeste 0 -- -- 72
2019-11-13 21:00:00 13.3 6 Sudoeste 20 Oeste 0 -- -- 70
2019-11-13 20:00:00 13.5 4 Sudoeste 13 Sudeste 0 -- -- 72
2019-11-13 19:00:00 14.3 3 Sur 17 Noroeste 0 -- -- 66
2019-11-13 18:00:00 15.1 4 Norte 26 Noroeste 0 -- -- 60
2019-11-13 17:00:00 15.8 4 Noroeste 26 Oeste 0 -- -- 57
2019-11-13 16:00:00 17 6 Oeste 22 Norte 0 -- -- 53
2019-11-13 15:00:00 17.4 5 Oeste 18 Sudoeste 0 -- -- 53
2019-11-13 14:00:00 17.9 7 Noroeste 21 Noroeste 0 -- -- 54
2019-11-13 13:00:00 17.1 9 Noroeste 30 Norte 0 -- -- 60
2019-11-13 12:00:00 16.7 6 Noroeste 23 Oeste 0 -- -- 62
2019-11-13 11:00:00 15.2 6 Noroeste 26 Noroeste 0 -- -- 70
2019-11-13 10:00:00 13.2 5 Noroeste 19 Oeste 0 -- -- 81
2019-11-13 09:00:00 12.7 3 Oeste 20 Oeste 0.2 -- -- 84
2019-11-13 08:00:00 12.1 6 Norte 24 Oeste 2.6 -- -- 85
2019-11-13 07:00:00 11.9 5 Nordeste 28 Sur 1.8 -- -- 91
2019-11-13 06:00:00 11.5 8 Sur 30 Oeste 2.2 -- -- 91
2019-11-13 05:00:00 11.2 8 Sudoeste 41 Oeste 0.4 -- -- 90
2019-11-13 04:00:00 11.1 6 Sur 51 Sudoeste 1 -- -- 89
2019-11-13 03:00:00 11.4 8 Sudoeste 44 Noroeste 0 -- -- 83
2019-11-13 02:00:00 11.6 8 Oeste 26 Oeste 0 -- -- 79
2019-11-13 01:00:00 11.5 4 Este 27 Sudoeste 0 -- -- 82
2019-11-13 00:00:00 11.1 6 Norte 26 Norte 0 -- -- 84
2019-11-12 23:00:00 11 8 Sudoeste 24 Noroeste 0 -- -- 83
2019-11-12 22:00:00 11.2 4 Este 15 Nordeste 0 -- -- 73
2019-11-12 21:00:00 11.7 4 Oeste 19 Noroeste 0 -- -- 70
2019-11-12 20:00:00 11.7 5 Noroeste 21 Noroeste 0 -- -- 64
2019-11-12 19:00:00 11.6 3 Sur 15 Sudoeste 0 -- -- 61
2019-11-12 18:00:00 11.1 0 Calma 17 Norte 0 -- -- 65
2019-11-12 17:00:00 11.6 0 Calma 11 Oeste 0 -- -- 64
2019-11-12 16:00:00 12.8 3 Oeste 10 Este 0 -- -- 52
2019-11-12 15:00:00 13.1 6 Sudeste 12 Este 0 -- -- 67
2019-11-12 14:00:00 11.9 5 Sur 12 Sudeste 0 -- -- 75
2019-11-12 13:00:00 9.5 2 Este 7 Sur 0.2 -- -- 87
2019-11-12 12:00:00 8 4 Sur 7 Sudeste 0 -- -- 97
2019-11-12 11:00:00 6.8 3 Sur 5 Sudeste 0 -- -- 99
2019-11-12 10:00:00 5.8 0 Calma 4 Norte 0 -- -- 99
2019-11-12 09:00:00 4.7 0 Calma 3 Sur 0 -- -- 98
2019-11-12 08:00:00 4.6 0 Calma 4 Noroeste 0 -- -- 98
2019-11-12 07:00:00 5.2 0 Calma 4 Noroeste 0 -- -- 98
2019-11-12 06:00:00 4.8 0 Calma 2 Nordeste 0 -- -- 99
2019-11-12 05:00:00 4.9 0 Calma 6 Noroeste 0 -- -- 98
2019-11-12 04:00:00 4.8 0 Calma 4 Sur 0 -- -- 97
2019-11-12 03:00:00 4.8 0 Calma 5 Noroeste 0 -- -- 98
2019-11-12 02:00:00 5.1 0 Calma 4 Noroeste 0 -- -- 97
2019-11-12 01:00:00 5.8 0 Calma 5 Norte 0 -- -- 97
2019-11-12 00:00:00 6.9 0 Calma 4 Noroeste 0 -- -- 97
2019-11-11 23:00:00 7.6 0 Calma 4 Oeste 0 -- -- 97
2019-11-11 22:00:00 8.1 0 Calma 4 Nordeste 0 -- -- 97
2019-11-11 21:00:00 7.9 0 Calma 10 Nordeste 0 -- -- 91
2019-11-11 20:00:00 9.1 4 Noroeste 13 Norte 0 -- -- 93
2019-11-11 19:00:00 9.4 4 Noroeste 8 Noroeste 0 -- -- 89
2019-11-11 18:00:00 12.3 0 Calma 18 Noroeste 0 -- -- 76
2019-11-11 17:00:00 13.5 7 Noroeste 30 Noroeste 0 -- -- 71
2019-11-11 16:00:00 12.7 12 Noroeste 30 Noroeste 0 -- -- 76
2019-11-11 15:00:00 12.7 4 Oeste 20 Nordeste 0 -- -- 79
2019-11-11 14:00:00 10.7 4 Sudeste 8 Este 0 -- -- 82
2019-11-11 13:00:00 9.8 2 Este 6 Sudeste 0 -- -- 82
2019-11-11 12:00:00 8.8 3 Sudeste 6 Este 0 -- -- 85
2019-11-11 11:00:00 8.2 0 Calma 9 Sudeste 0 -- -- 82
2019-11-11 10:00:00 7.6 0 Calma 10 Norte 0 -- -- 82
2019-11-11 09:00:00 7.1 3 Noroeste 7 Noroeste 0 -- -- 88
2019-11-11 08:00:00 6.9 2 Noroeste 12 Noroeste 0 -- -- 85
2019-11-11 07:00:00 6.5 6 Noroeste 14 Norte 0 -- -- 84
2019-11-11 06:00:00 6.2 3 Norte 5 Nordeste 0 -- -- 86
2019-11-11 05:00:00 6.8 0 Calma 5 Norte 0 -- -- 84
2019-11-11 04:00:00 6.9 0 Calma 3 Oeste 0 -- -- 83
2019-11-11 03:00:00 7.1 0 Calma 4 Noroeste 0 -- -- 80
2019-11-11 02:00:00 7.6 3 Sur 27 Norte 0 -- -- 75
2019-11-11 01:00:00 7.5 12 Norte 25 Norte 0 -- -- 74
2019-11-11 00:00:00 7.4 3 Noroeste 14 Norte 0 -- -- 75
2019-11-10 23:00:00 7.3 5 Norte 20 Noroeste 0 -- -- 73
2019-11-10 22:00:00 7.3 11 Norte 24 Noroeste 0 -- -- 71
2019-11-10 21:00:00 7.6 5 Noroeste 21 Oeste 0 -- -- 71
2019-11-10 20:00:00 8.1 3 Noroeste 25 Noroeste 0 -- -- 69
2019-11-10 19:00:00 8.1 9 Noroeste 35 Oeste 0 -- -- 68
2019-11-10 18:00:00 8.5 5 Norte 31 Oeste 0 -- -- 68
2019-11-10 17:00:00 9.1 8 Noroeste 30 Noroeste 0 -- -- 62
2019-11-10 16:00:00 9.8 9 Noroeste 36 Noroeste 0 -- -- 58
2019-11-10 15:00:00 10.6 17 Noroeste 50 Norte 0 -- -- 52
2019-11-10 14:00:00 10.7 15 Noroeste 35 Noroeste 0 -- -- 51
2019-11-10 13:00:00 9.7 18 Noroeste 39 Oeste 0 -- -- 55
2019-11-10 12:00:00 9.6 12 Noroeste 33 Noroeste 0 -- -- 56
2019-11-10 11:00:00 9.7 7 Noroeste 24 Noroeste 0 -- -- 54
2019-11-10 10:00:00 7.5 10 Norte 27 Norte 0 -- -- 59
2019-11-10 09:00:00 6.8 12 Norte 26 Norte 0 -- -- 59
2019-11-10 08:00:00 6.9 14 Noroeste 26 Norte 0 -- -- 53
2019-11-10 07:00:00 7.3 16 Noroeste 35 Noroeste 0 -- -- 57
2019-11-10 06:00:00 7.6 9 Noroeste 31 Norte 0 -- -- 59
2019-11-10 05:00:00 7.9 6 Norte 33 Noroeste 0 -- -- 64
2019-11-10 04:00:00 8.6 6 Norte 45 Noroeste 0 -- -- 68
2019-11-10 03:00:00 9.3 17 Noroeste 49 Noroeste 0 -- -- 65
2019-11-10 02:00:00 9.2 13 Noroeste 43 Noroeste 0 -- -- 73
2019-11-10 01:00:00 9.6 10 Noroeste 40 Noroeste 0.2 -- -- 69
2019-11-10 00:00:00 10 13 Norte 34 Norte 0 -- -- 81
2019-11-09 23:00:00 10.4 13 Noroeste 32 Norte 0 -- -- 79
2019-11-09 22:00:00 9.9 3 Sudoeste 14 Oeste 0 -- -- 87
2019-11-09 21:00:00 9.3 3 Este 9 Este 0.2 -- -- 96
2019-11-09 20:00:00 9.1 2 Nordeste 6 Sudeste 1.2 -- -- 95
2019-11-09 19:00:00 9.1 3 Nordeste 7 Nordeste 0.8 -- -- 94
2019-11-09 18:00:00 9.6 2 Sur 16 Noroeste 2.4 -- -- 89
2019-11-09 17:00:00 10.7 4 Nordeste 14 Este 0 -- -- 79
2019-11-09 16:00:00 10.3 4 Este 22 Sudoeste 0 -- -- 81
2019-11-09 15:00:00 12.8 6 Sudeste 14 Sur 0 -- -- 58
2019-11-09 14:00:00 12.5 8 Norte 21 Norte 0 -- -- 61
2019-11-09 13:00:00 13.5 8 Sudeste 14 Sudeste 0 -- -- 49
2019-11-09 12:00:00 12.4 6 Sudeste 13 Sudeste 0 -- -- 50
2019-11-09 11:00:00 11 3 Sudeste 12 Sudeste 0 -- -- 54
2019-11-09 10:00:00 9.1 5 Sudeste 17 Norte 0 -- -- 58
2019-11-09 09:00:00 6.2 0 Calma 9 Noroeste 0 -- -- 68
2019-11-09 08:00:00 4.8 5 Noroeste 23 Norte 0 -- -- 71
2019-11-09 07:00:00 5.9 9 Noroeste 27 Norte 0 -- -- 65
2019-11-09 06:00:00 5.9 12 Norte 23 Noroeste 0 -- -- 66
2019-11-09 05:00:00 4.8 5 Oeste 18 Noroeste 0 -- -- 74
2019-11-09 04:00:00 5.3 10 Norte 23 Norte 0 -- -- 72
2019-11-09 03:00:00 5 3 Oeste 14 Noroeste 0 -- -- 73
2019-11-09 02:00:00 5.1 2 Sur 12 Oeste 0 -- -- 73
2019-11-09 01:00:00 6.1 6 Norte 19 Noroeste 0 -- -- 68
2019-11-09 00:00:00 6.6 2 Nordeste 23 Norte 0 -- -- 65
2019-11-08 23:00:00 7.4 10 Noroeste 28 Noroeste 0 -- -- 60
2019-11-08 22:00:00 8.1 9 Noroeste 27 Noroeste 0 -- -- 58
2019-11-08 21:00:00 8.8 9 Norte 47 Noroeste 0 -- -- 52
2019-11-08 20:00:00 9 11 Noroeste 30 Noroeste 0 -- -- 51
2019-11-08 19:00:00 9 4 Sudoeste 26 Oeste 0 -- -- 56
2019-11-08 18:00:00 9.1 3 Noroeste 12 Noroeste 0 -- -- 59
2019-11-08 17:00:00 10.6 4 Noroeste 26 Noroeste 0 -- -- 49
2019-11-08 16:00:00 11.8 4 Noroeste 17 Sudoeste 0 -- -- 47
2019-11-08 15:00:00 13.8 4 Norte 18 Oeste 0 -- -- 40
2019-11-08 14:00:00 12.5 10 Noroeste 23 Noroeste 0 -- -- 42
2019-11-08 13:00:00 11.7 13 Norte 26 Norte 0 -- -- 48
2019-11-08 12:00:00 10.3 12 Norte 29 Norte 0 -- -- 52
2019-11-08 11:00:00 9.1 14 Norte 33 Norte 0 -- -- 55
2019-11-08 10:00:00 7.9 15 Noroeste 32 Noroeste 0 -- -- 58
2019-11-08 09:00:00 5.7 10 Norte 24 Norte 0 -- -- 67
2019-11-08 08:00:00 4.8 11 Noroeste 27 Noroeste 0 -- -- 67
2019-11-08 07:00:00 4.8 6 Norte 31 Noroeste 0 -- -- 70
2019-11-08 06:00:00 5.3 10 Norte 32 Noroeste 0 -- -- 69
2019-11-08 05:00:00 5.8 7 Noroeste 22 Oeste 0 -- -- 68
2019-11-08 04:00:00 6.1 7 Noroeste 25 Noroeste 0 -- -- 72
2019-11-08 03:00:00 6 7 Noroeste 25 Noroeste 0 -- -- 70
2019-11-08 02:00:00 6.2 6 Noroeste 31 Norte 0 -- -- 71
2019-11-08 01:00:00 6.7 11 Noroeste 25 Noroeste 0 -- -- 69
2019-11-08 00:00:00 6.6 8 Norte 25 Norte 0 -- -- 68
2019-11-07 23:00:00 7 8 Norte 27 Noroeste 0 -- -- 69
2019-11-07 22:00:00 7.4 8 Noroeste 28 Noroeste 0 -- -- 69
2019-11-07 21:00:00 8.6 8 Noroeste 24 Oeste 0 -- -- 66
2019-11-07 20:00:00 8.9 7 Noroeste 25 Norte 0 -- -- 68
2019-11-07 19:00:00 10.1 12 Noroeste 36 Noroeste 0 -- -- 63
2019-11-07 18:00:00 10.5 4 Norte 22 Noroeste 0 -- -- 53
2019-11-07 17:00:00 11.5 5 Noroeste 30 Noroeste 0 -- -- 51
2019-11-07 16:00:00 12.1 13 Noroeste 39 Noroeste 0 -- -- 47
2019-11-07 15:00:00 12.6 15 Noroeste 37 Noroeste 0 -- -- 49
2019-11-07 14:00:00 13.5 11 Noroeste 31 Oeste 0 -- -- 48
2019-11-07 13:00:00 12.9 11 Noroeste 33 Noroeste 0 -- -- 48
2019-11-07 12:00:00 14.3 9 Oeste 24 Norte 0 -- -- 51
2019-11-07 11:00:00 12.4 6 Norte 21 Norte 0 -- -- 61
2019-11-07 10:00:00 12.1 6 Norte 15 Nordeste 0 -- -- 76
2019-11-07 09:00:00 11.1 3 Sudeste 9 Nordeste 0.2 -- -- 96
2019-11-07 08:00:00 10.9 2 Nordeste 5 Nordeste 0.8 -- -- 97
2019-11-07 07:00:00 10.7 2 Este 6 Nordeste 1.4 -- -- 97
2019-11-07 06:00:00 10.5 2 Este 7 Nordeste 2.2 -- -- 96
2019-11-07 05:00:00 10.4 0 Calma 3 Este 1.6 -- -- 96
2019-11-07 04:00:00 10.2 0 Calma 5 Sur 0.4 -- -- 96
2019-11-07 03:00:00 10 2 Norte 8 Sudeste 0.6 -- -- 96
2019-11-07 02:00:00 10.1 0 Calma 3 Norte 0.8 -- -- 94
2019-11-07 01:00:00 10.3 0 Calma 9 Oeste 0.2 -- -- 91
2019-11-07 00:00:00 10.3 0 Calma 5 Sudoeste 0 -- -- 85
2019-11-06 23:00:00 10 0 Calma 6 Sur 0 -- -- 85
2019-11-06 22:00:00 9 4 Noroeste 7 Noroeste 0 -- -- 80
2019-11-06 21:00:00 8.6 3 Noroeste 9 Este 0 -- -- 80
2019-11-06 20:00:00 9.1 3 Este 6 Norte 0 -- -- 77
2019-11-06 19:00:00 10.2 4 Norte 10 Noroeste 0 -- -- 71
2019-11-06 18:00:00 11.8 3 Noroeste 17 Oeste 0 -- -- 64
2019-11-06 17:00:00 13.1 7 Noroeste 20 Noroeste 0 -- -- 55
2019-11-06 16:00:00 14.1 5 Oeste 24 Noroeste 0 -- -- 51
2019-11-06 15:00:00 15.2 5 Norte 17 Oeste 0 -- -- 49
2019-11-06 14:00:00 13.8 6 Noroeste 21 Oeste 0 -- -- 53
2019-11-06 13:00:00 12.5 6 Norte 17 Norte 0 -- -- 54
2019-11-06 12:00:00 11.2 5 Sudeste 13 Sudeste 0 -- -- 69
2019-11-06 11:00:00 10.1 4 Sur 19 Norte 0 -- -- 68
2019-11-06 10:00:00 9.4 11 Noroeste 22 Noroeste 0 -- -- 70
2019-11-06 09:00:00 7.9 8 Norte 20 Norte 0 -- -- 75
2019-11-06 08:00:00 6.4 3 Noroeste 15 Sudoeste 0 -- -- 81
2019-11-06 07:00:00 6.8 6 Sudoeste 17 Oeste 0 -- -- 78
2019-11-06 06:00:00 7.4 8 Norte 19 Noroeste 0 -- -- 78
2019-11-06 05:00:00 7.7 6 Norte 23 Noroeste 0 -- -- 77
2019-11-06 04:00:00 8.1 11 Norte 28 Noroeste 0 -- -- 75
2019-11-06 03:00:00 8.7 14 Norte 37 Norte 0 -- -- 72
2019-11-06 02:00:00 9.4 19 Norte 37 Norte 0 -- -- 71
2019-11-06 01:00:00 9.3 12 Norte 41 Norte 0 -- -- 73
2019-11-06 00:00:00 10 15 Norte 31 Norte 0 -- -- 69